x

Middle Nomad (46004) Wave Buoy

11:00am - Sun 1st Feb 2015 All times are PST. -8 hours from GMT.

  • Sig Wave height 15.4ft
  • Peak Period 15s
  • Wind
    18mph, 25mph gusts
  • Sea Temp 48°f
  • Air Temp 49°f
  • Sea Pressure 1006.5mb
  • Middle Nomad
  • Middle Nomad

More Historic Weather Station data

Upgrade to MSW Pro to gain access to the past 30 days of data for over 8000 Wavebouys and Weather Stations around the globe.

Join Pro

Comparision Forecast

View Surf forecast
   
Sun 02/01 11:00am 15.5ft 15s 18 25 mph 1006.5mb 48f 49f
10:00am 14ft 15s 20 27 mph 1005.8mb 48f 49f
9:00am 14ft 14s 22 27 mph 1005.1mb 48f 48f
8:00am 15ft 15s 25 29 mph 1004.2mb 48f 48f
7:00am 13ft 14s 25 31 mph 1003.8mb 48f 48f
6:00am 13.5ft 14s 27 34 mph 1003.2mb 48f 47f
5:00am 11ft 12s 20 27 mph 1002.6mb 48f 48f
4:00am 12ft 14s 22 27 mph 1002.1mb 48f 48f
3:00am 12ft 12s 22 25 mph 1002.1mb 48f 48f
2:00am 12ft 13s 27 34 mph 1001.2mb 48f 48f
1:00am 11ft 12s 11 16 mph 1002mb 48f 49f
12:00am 11ft 12s 9 11 mph 1002.6mb 48f 48f
Sat 01/31 11:00pm 11.5ft 11s 4 7 mph 1002.7mb 48f 48f
10:00pm 10.5ft 12s 7 9 mph 1002.8mb 48f 48f
9:00pm 11ft 12s 9 13 mph 1003.1mb 48f 48f
8:00pm 11ft 12s 13 18 mph 1003.6mb 48f 48f
7:00pm 9.5ft 11s 11 18 mph 1004.2mb 48f 48f
6:00pm 10ft 10s 7 11 mph 1004.4mb 48f 48f
5:00pm 9ft 10s 7 11 mph 1005.3mb 48f 48f
4:00pm 9.5ft 11s 11 13 mph 1006.6mb 48f 48f
2:00pm 8.5ft 10s 2 4 mph 1009.2mb 48f 48f
1:00pm 9ft 9s 2 4 mph 1010.3mb 48f 49f
12:00pm 8ft 8s 9 13 mph 1011.7mb 48f 49f
11:00am 9ft 9s 13 18 mph 1012.6mb 48f 49f
10:00am 9ft 8s 16 18 mph 1012.7mb 48f 49f
9:00am 9.5ft 7s 20 22 mph 1013mb 48f 49f
8:00am 9ft 6s 22 29 mph 1013.2mb 48f 49f
7:00am 8.5ft 7s 25 29 mph 1013.3mb 48f 49f
6:00am 8ft 6s 25 31 mph 1013.8mb 48f 49f
5:00am 7.5ft 6s 25 29 mph 1015.4mb 48f 49f
4:00am 7ft 6s 25 29 mph 1015.3mb 48f 49f
3:00am 7ft 6s 25 29 mph 1016.5mb 48f 49f
2:00am 6.5ft 6s 22 29 mph 1017mb 48f 49f
1:00am 6.5ft 6s 22 25 mph 1017.5mb 48f 49f
12:00am 6.5ft 11s 20 22 mph 1019mb 48f 48f
Fri 01/30 11:00pm 6.5ft 13s 22 27 mph 1019.5mb 48f 48f
10:00pm 6.5ft 12s 20 25 mph 1020mb 48f 48f
9:00pm 6.5ft 13s 22 25 mph 1020.6mb 48f 47f
8:00pm 6.5ft 12s 20 25 mph 1021.5mb 48f 47f
7:00pm 6.5ft 13s 22 27 mph 1021.2mb 48f 47f
6:00pm 6ft 14s 22 27 mph 1021.4mb 48f 47f
5:00pm 6.5ft 12s 20 27 mph 1022.2mb 48f 48f
4:00pm 7ft 14s 20 25 mph 1022.8mb 48f 48f
3:00pm 7ft 13s 18 22 mph 1023.3mb 48f 48f
2:00pm 7ft 14s 18 22 mph 1023mb 48f 47f
1:00pm 7ft 14s 18 22 mph 1023.3mb 48f 47f
12:00pm 7ft 12s 13 18 mph 1024.2mb 48f 47f
11:00am 7ft 14s 13 18 mph 1023.9mb 48f 48f
10:00am 7ft 13s 16 20 mph 1023.1mb 48f 48f
9:00am 7ft 13s 11 18 mph 1022.7mb 48f 47f
8:00am 7ft 13s 11 16 mph 1022.5mb 48f 47f
7:00am 7.5ft 14s 13 18 mph 1021.5mb 48f 46f
6:00am 7.5ft 11s 18 22 mph 1020.6mb 48f 47f
5:00am 7.5ft 14s 18 22 mph 1020mb 48f 47f
4:00am 7ft 12s 18 20 mph 1019.8mb 48f 46f
3:00am 7.5ft 13s 20 22 mph 1019.4mb 48f 46f
2:00am 7ft 14s 22 25 mph 1018.1mb 48f 46f
1:00am 7ft 14s 20 27 mph 1017.6mb 48f 46f
12:00am 7.5ft 14s 22 27 mph 1017.1mb 48f 46f
Thu 01/29 11:00pm 7ft 15s 22 27 mph 1016.8mb 48f 46f
10:00pm 7.5ft 10s 22 29 mph 1016.9mb 48f 46f
9:00pm 7.5ft 13s 22 27 mph 1017.3mb 48f 46f
8:00pm  -   -  22
mph
1017.7mb - 46f
7:00pm 8ft 9s 22 27 mph 1018.4mb 48f 46f
6:00pm 7ft 9s 20 25 mph 1019.1mb 48f 46f
5:00pm 8ft 13s 18 20 mph 1019.5mb 48f 47f
4:00pm 7.5ft 14s 13 18 mph 1019.8mb 48f 47f
3:00pm 7.5ft 14s 13 18 mph 1020.1mb 48f 48f
2:00pm 7ft 13s 13 18 mph 1021.1mb 48f 48f
1:00pm 7ft 10s 11 16 mph 1022.2mb 48f 48f
12:00pm 7.5ft 15s 13 18 mph 1022.3mb 48f 48f
11:00am 8ft 13s 11 13 mph 1022.7mb 48f 48f
10:00am 8ft 10s 11 13 mph 1022.2mb 48f 47f
9:00am 7.5ft 10s 7 11 mph 1022.2mb 48f 47f
8:00am 8.5ft 10s 4 9 mph 1022mb 48f 47f
7:00am 9.5ft 10s 4 7 mph 1022mb 48f 47f
6:00am 9.5ft 9s 2 4 mph 1021.7mb 48f 47f
5:00am 9.5ft 10s  -  2 mph 1021.9mb 48f 47f
4:00am 10ft 10s 2 4 mph 1022mb 48f 47f
3:00am 10ft 10s 2 4 mph 1021.8mb 48f 47f
2:00am 9ft 10s 2 4 mph 1021.7mb 48f 47f
1:00am 9.5ft 10s 4 9 mph 1020.9mb 48f 48f
12:00am 9.5ft 10s 7 9 mph 1020.5mb 48f 48f
Wed 01/28 11:00pm 10ft 10s 7 9 mph 1019.8mb 48f 48f
10:00pm 10ft 16s 7 9 mph 1019.2mb 48f 48f
9:00pm 10ft 10s 11 13 mph 1018.7mb 48f 49f